Time;durP1;ratioP1;P1;durP2;ratioP2;P2;SDS_P1;SDS_P2;PMS_P1;PMS_P2;Temp;Humidity;BMP_temperature;BMP_pressure;BME280_temperature;BME280_humidity;BME280_pressure;Samples;Min_cycle;Max_cycle;Signal;HPM_P1;HPM_P2
2022/12/30 00:01:42;;;;;;;;;;;18.60;63.90;;;;;;4970192;28;1325;-69
2022/12/30 00:04:08;;;;;;;;;;;18.60;63.90;;;;;;4971592;28;1241;-69
2022/12/30 00:06:33;;;;;;;;;;;18.60;63.90;;;;;;4971487;28;828;-69
2022/12/30 00:08:59;;;;;;;;;;;18.60;64.00;;;;;;4971166;28;1070;-69
2022/12/30 00:11:28;;;;;;;;;;;18.60;64.00;;;;;;4971281;28;1344;-69
2022/12/30 00:33:22;;;;;;;;;;;18.60;64.10;;;;;;4970125;28;783;-68
2022/12/30 00:35:47;;;;;;;;;;;18.60;64.10;;;;;;4968547;28;1236;-69
2022/12/30 00:38:13;;;;;;;;;;;18.60;64.10;;;;;;4985186;28;1154;-69
2022/12/30 00:43:07;;;;;;;;;;;18.60;64.10;;;;;;4970776;28;1972;-69
2022/12/30 00:43:24;;;;;;;;;;;18.60;64.10;;;;;;4970756;28;1099;-70
2022/12/30 00:45:49;;;;;;;;;;;18.60;64.10;;;;;;4971362;28;995;-69
2022/12/30 00:56:27;;;;;;;;;;;18.50;64.10;;;;;;4970570;28;823;-69
2022/12/30 00:58:53;;;;;;;;;;;18.50;64.10;;;;;;4970608;28;955;-69
2022/12/30 01:01:18;;;;;;;;;;;18.50;64.10;;;;;;4970819;28;1983;-69
2022/12/30 01:03:44;;;;;;;;;;;18.50;64.10;;;;;;4970919;28;958;-69
2022/12/30 01:06:09;;;;;;;;;;;18.50;64.10;;;;;;4970886;28;828;-69
2022/12/30 01:08:35;;;;;;;;;;;18.50;64.10;;;;;;4971169;28;779;-70
2022/12/30 01:11:04;;;;;;;;;;;18.50;64.10;;;;;;4955669;28;1370;-69
2022/12/30 01:13:30;;;;;;;;;;;18.50;64.10;;;;;;4972961;28;829;-69
2022/12/30 01:15:55;;;;;;;;;;;18.50;64.10;;;;;;4974325;28;822;-69
2022/12/30 01:18:21;;;;;;;;;;;18.50;64.10;;;;;;4956720;28;1278;-69
2022/12/30 01:20:46;;;;;;;;;;;18.50;64.20;;;;;;4961213;28;1914;-69
2022/12/30 01:23:12;;;;;;;;;;;18.50;64.10;;;;;;4974057;28;805;-68
2022/12/30 01:25:40;;;;;;;;;;;18.50;64.10;;;;;;4974331;28;1704;-69
2022/12/30 01:28:06;;;;;;;;;;;18.50;64.20;;;;;;4972538;28;1629;-69
2022/12/30 01:30:31;;;;;;;;;;;18.50;64.20;;;;;;4973761;28;1261;-69
2022/12/30 01:32:57;;;;;;;;;;;18.50;64.20;;;;;;4972889;28;875;-69
2022/12/30 01:35:22;;;;;;;;;;;18.50;64.20;;;;;;4973941;28;912;-69
2022/12/30 01:37:48;;;;;;;;;;;18.50;64.20;;;;;;4956451;28;1540;-70
2022/12/30 01:40:13;;;;;;;;;;;18.50;64.20;;;;;;4972308;28;1902;-69
2022/12/30 01:42:39;;;;;;;;;;;18.50;64.20;;;;;;4972219;28;915;-68
2022/12/30 01:45:14;;;;;;;;;;;18.50;64.20;;;;;;4972581;28;821;-68
2022/12/30 01:47:43;;;;;;;;;;;18.50;64.20;;;;;;4972276;28;916;-70
2022/12/30 01:50:09;;;;;;;;;;;18.50;64.20;;;;;;4952275;28;1209;-69
2022/12/30 01:52:35;;;;;;;;;;;18.50;64.20;;;;;;4972322;28;1302;-70
2022/12/30 01:55:01;;;;;;;;;;;18.50;64.20;;;;;;4972322;28;1676;-69
2022/12/30 01:57:27;;;;;;;;;;;18.50;64.30;;;;;;4972106;28;1023;-70
2022/12/30 01:59:52;;;;;;;;;;;18.50;64.20;;;;;;4972063;28;1899;-69
2022/12/30 02:02:18;;;;;;;;;;;18.50;64.30;;;;;;4972139;28;1292;-69
2022/12/30 02:04:43;;;;;;;;;;;18.50;64.30;;;;;;4974164;28;1275;-69
2022/12/30 02:07:11;;;;;;;;;;;18.50;64.30;;;;;;4973722;28;952;-69
2022/12/30 02:09:37;;;;;;;;;;;18.50;64.30;;;;;;4954771;28;1419;-69
2022/12/30 02:12:03;;;;;;;;;;;18.50;64.30;;;;;;4971181;28;1444;-69
2022/12/30 02:14:29;;;;;;;;;;;18.50;64.30;;;;;;4972059;28;979;-69
2022/12/30 02:17:04;;;;;;;;;;;18.50;64.30;;;;;;4972896;28;920;-69
2022/12/30 02:19:49;;;;;;;;;;;18.50;64.30;;;;;;4972724;28;1914;-69
2022/12/30 02:22:20;;;;;;;;;;;18.50;64.30;;;;;;4971468;28;1296;-69
2022/12/30 02:25:06;;;;;;;;;;;18.50;64.30;;;;;;4947051;28;1274;-69
2022/12/30 02:27:34;;;;;;;;;;;18.50;64.40;;;;;;4972268;28;852;-69
2022/12/30 02:30:01;;;;;;;;;;;18.50;64.30;;;;;;4971234;28;1406;-69
2022/12/30 02:32:27;;;;;;;;;;;18.50;64.30;;;;;;4971675;28;821;-69
2022/12/30 02:34:59;;;;;;;;;;;18.50;64.30;;;;;;4972769;28;931;-69
2022/12/30 02:37:34;;;;;;;;;;;18.50;64.30;;;;;;4971470;28;975;-70
2022/12/30 02:40:06;;;;;;;;;;;18.50;64.40;;;;;;4971959;28;1930;-69
2022/12/30 02:45:18;;;;;;;;;;;18.50;64.40;;;;;;4972056;28;1014;-70
2022/12/30 02:47:46;;;;;;;;;;;18.40;64.30;;;;;;4972377;28;892;-69
2022/12/30 02:52:57;;;;;;;;;;;18.50;64.40;;;;;;4971171;28;749;-69
2022/12/30 02:55:22;;;;;;;;;;;18.40;64.30;;;;;;4970631;28;800;-69
2022/12/30 02:57:47;;;;;;;;;;;18.50;64.40;;;;;;4970279;28;954;-69
2022/12/30 03:06:16;;;;;;;;;;;18.40;64.30;;;;;;4971351;28;768;-69
2022/12/30 03:08:51;;;;;;;;;;;18.40;64.30;;;;;;4970775;28;975;-69
2022/12/30 03:11:16;;;;;;;;;;;18.50;65.20;;;;;;4970902;28;1277;-69
2022/12/30 03:13:50;;;;;;;;;;;18.50;64.40;;;;;;4971189;28;845;-69
2022/12/30 03:16:18;;;;;;;;;;;18.40;64.40;;;;;;4970710;28;1250;-69
2022/12/30 03:18:44;;;;;;;;;;;18.40;64.30;;;;;;4970427;28;1066;-69
2022/12/30 03:21:10;;;;;;;;;;;18.40;64.30;;;;;;4970492;28;1919;-69
2022/12/30 03:29:04;;;;;;;;;;;18.40;64.30;;;;;;4970454;28;806;-69
2022/12/30 03:31:29;;;;;;;;;;;18.40;64.30;;;;;;4971893;28;1258;-69
2022/12/30 03:33:55;;;;;;;;;;;18.40;64.30;;;;;;4970243;28;999;-70
2022/12/30 03:36:25;;;;;;;;;;;18.40;64.30;;;;;;4971695;28;796;-69
2022/12/30 03:38:52;;;;;;;;;;;18.40;64.30;;;;;;4969987;28;1347;-69
2022/12/30 03:41:18;;;;;;;;;;;18.40;64.30;;;;;;4971614;28;1977;-70
2022/12/30 03:43:43;;;;;;;;;;;18.40;64.30;;;;;;4970322;28;936;-69
2022/12/30 03:46:09;;;;;;;;;;;18.40;64.30;;;;;;4970577;28;1019;-69
2022/12/30 03:48:34;;;;;;;;;;;18.40;64.30;;;;;;4971607;28;870;-69
2022/12/30 03:51:00;;;;;;;;;;;18.40;64.30;;;;;;4970157;28;1365;-69
2022/12/30 03:53:25;;;;;;;;;;;18.40;64.30;;;;;;4971644;28;851;-69
2022/12/30 03:55:51;;;;;;;;;;;18.40;64.30;;;;;;4972165;28;861;-70
2022/12/30 03:58:16;;;;;;;;;;;18.40;64.30;;;;;;4971765;28;864;-69
2022/12/30 04:00:42;;;;;;;;;;;18.40;64.40;;;;;;4972026;28;1977;-69
2022/12/30 04:03:07;;;;;;;;;;;18.40;64.40;;;;;;4971434;28;940;-69
2022/12/30 04:05:33;;;;;;;;;;;18.40;64.30;;;;;;4971490;28;1268;-69
2022/12/30 04:07:58;;;;;;;;;;;18.40;64.40;;;;;;4971324;28;861;-69
2022/12/30 04:10:24;;;;;;;;;;;18.40;64.40;;;;;;4970978;28;1364;-69
2022/12/30 04:12:49;;;;;;;;;;;18.40;64.40;;;;;;4971327;28;884;-69
2022/12/30 04:15:15;;;;;;;;;;;18.40;64.40;;;;;;4971592;28;789;-69
2022/12/30 04:17:40;;;;;;;;;;;18.40;64.40;;;;;;4970279;28;1368;-70
2022/12/30 04:20:06;;;;;;;;;;;18.40;64.40;;;;;;4971805;28;1918;-69
2022/12/30 04:22:31;;;;;;;;;;;18.40;64.40;;;;;;4970227;28;1271;-69
2022/12/30 04:24:57;;;;;;;;;;;18.40;64.40;;;;;;4971391;28;843;-69
2022/12/30 04:27:22;;;;;;;;;;;18.40;64.40;;;;;;4969924;28;877;-69
2022/12/30 04:29:49;;;;;;;;;;;18.40;64.40;;;;;;4971300;28;1137;-69
2022/12/30 04:32:14;;;;;;;;;;;18.40;64.40;;;;;;4971049;28;1415;-69
2022/12/30 04:34:40;;;;;;;;;;;18.40;64.40;;;;;;4971343;28;793;-69
2022/12/30 04:37:05;;;;;;;;;;;18.40;64.40;;;;;;4969916;28;843;-70
2022/12/30 04:39:31;;;;;;;;;;;18.40;64.40;;;;;;4970908;28;1974;-69
2022/12/30 04:41:56;;;;;;;;;;;18.40;64.40;;;;;;4970757;28;1332;-69
2022/12/30 04:44:22;;;;;;;;;;;18.40;64.40;;;;;;4986116;28;1223;-70
2022/12/30 04:46:47;;;;;;;;;;;18.40;64.40;;;;;;4974749;28;899;-70
2022/12/30 04:49:12;;;;;;;;;;;18.40;64.50;;;;;;4974516;28;1058;-69
2022/12/30 04:51:38;;;;;;;;;;;18.40;64.40;;;;;;4974674;28;1316;-69
2022/12/30 04:54:03;;;;;;;;;;;18.40;64.40;;;;;;4974604;28;904;-70
2022/12/30 04:56:29;;;;;;;;;;;18.40;64.40;;;;;;4977315;28;1239;-70
2022/12/30 04:58:54;;;;;;;;;;;18.30;64.40;;;;;;4974433;28;820;-70
2022/12/30 05:01:20;;;;;;;;;;;18.30;64.40;;;;;;4974080;28;1965;-69
2022/12/30 05:03:45;;;;;;;;;;;18.30;64.40;;;;;;4974053;28;1385;-69
2022/12/30 05:06:11;;;;;;;;;;;18.40;64.50;;;;;;4974110;28;939;-70
2022/12/30 05:08:36;;;;;;;;;;;18.30;64.50;;;;;;4973958;28;960;-70
2022/12/30 05:11:02;;;;;;;;;;;18.30;64.40;;;;;;4972311;28;1363;-69
2022/12/30 05:13:27;;;;;;;;;;;18.40;64.40;;;;;;4974113;28;832;-69
2022/12/30 05:15:53;;;;;;;;;;;18.40;64.40;;;;;;4974197;28;892;-69
2022/12/30 05:18:18;;;;;;;;;;;18.40;64.30;;;;;;4974139;28;1269;-69
2022/12/30 05:20:44;;;;;;;;;;;18.40;64.30;;;;;;4972391;28;1958;-69
2022/12/30 05:26:13;;;;;;;;;;;18.40;64.20;;;;;;4973883;28;881;-68
2022/12/30 05:28:39;;;;;;;;;;;18.50;64.20;;;;;;4974102;28;737;-70
2022/12/30 05:31:04;;;;;;;;;;;18.50;64.10;;;;;;4972386;28;1273;-69
2022/12/30 05:33:30;;;;;;;;;;;18.50;64.00;;;;;;4974304;28;776;-69
2022/12/30 05:35:55;;;;;;;;;;;18.50;63.90;;;;;;4973752;28;797;-70
2022/12/30 05:38:21;;;;;;;;;;;18.50;63.80;;;;;;4973839;28;1265;-70
2022/12/30 05:40:46;;;;;;;;;;;18.50;63.80;;;;;;4973436;28;1903;-69
2022/12/30 05:43:12;;;;;;;;;;;18.50;63.70;;;;;;4972716;28;1047;-69
2022/12/30 05:45:37;;;;;;;;;;;18.60;63.70;;;;;;4972534;28;1318;-70
2022/12/30 05:48:02;;;;;;;;;;;18.60;63.60;;;;;;4973899;28;876;-69
2022/12/30 05:50:28;;;;;;;;;;;18.60;63.60;;;;;;4973756;28;1284;-69
2022/12/30 05:52:53;;;;;;;;;;;18.60;63.50;;;;;;4972295;28;1015;-69
2022/12/30 05:55:19;;;;;;;;;;;18.60;63.50;;;;;;4973561;28;799;-69
2022/12/30 05:57:44;;;;;;;;;;;18.60;63.50;;;;;;4973155;28;930;-69
2022/12/30 06:00:10;;;;;;;;;;;18.60;63.40;;;;;;4972991;28;1902;-69
2022/12/30 06:02:36;;;;;;;;;;;18.60;63.40;;;;;;4973440;28;792;-70
2022/12/30 06:05:01;;;;;;;;;;;18.60;63.30;;;;;;4974581;28;1021;-69
2022/12/30 06:07:26;;;;;;;;;;;18.70;63.30;;;;;;4973257;28;868;-69
2022/12/30 06:09:52;;;;;;;;;;;18.70;63.30;;;;;;4973348;28;927;-70
2022/12/30 06:12:17;;;;;;;;;;;18.80;63.20;;;;;;4973079;28;1238;-68
2022/12/30 06:14:43;;;;;;;;;;;18.90;63.00;;;;;;4973301;28;972;-69
2022/12/30 06:17:08;;;;;;;;;;;19.00;62.90;;;;;;4974088;28;1265;-69
2022/12/30 06:19:34;;;;;;;;;;;19.00;62.70;;;;;;4973035;28;1875;-68
2022/12/30 06:21:59;;;;;;;;;;;19.10;62.50;;;;;;4944817;28;1293;-69
2022/12/30 06:24:25;;;;;;;;;;;19.30;62.30;;;;;;4973022;28;940;-69
2022/12/30 06:26:50;;;;;;;;;;;19.40;62.00;;;;;;4973194;28;1045;-69
2022/12/30 06:29:16;;;;;;;;;;;19.50;61.80;;;;;;4971284;28;868;-70
2022/12/30 06:31:41;;;;;;;;;;;19.50;61.40;;;;;;4968962;28;1912;-68
2022/12/30 06:34:06;;;;;;;;;;;19.70;61.10;;;;;;4973216;28;1034;-68
2022/12/30 06:36:32;;;;;;;;;;;19.70;60.90;;;;;;4973627;28;1358;-68
2022/12/30 06:38:58;;;;;;;;;;;19.80;60.50;;;;;;4972179;28;1093;-68
2022/12/30 06:41:23;;;;;;;;;;;19.90;60.30;;;;;;4973457;28;1955;-68
2022/12/30 06:43:49;;;;;;;;;;;20.00;60.10;;;;;;4973833;28;915;-68
2022/12/30 06:46:14;;;;;;;;;;;20.00;59.80;;;;;;4973448;28;792;-68
2022/12/30 06:48:40;;;;;;;;;;;20.10;59.70;;;;;;4973122;28;940;-68
2022/12/30 06:51:05;;;;;;;;;;;20.20;59.60;;;;;;4972460;28;1332;-68
2022/12/30 06:53:31;;;;;;;;;;;20.20;59.40;;;;;;4955153;28;1158;-69
2022/12/30 06:55:56;;;;;;;;;;;20.30;59.60;;;;;;4971110;28;895;-70
2022/12/30 06:58:22;;;;;;;;;;;20.30;59.20;;;;;;4971373;28;1058;-70
2022/12/30 07:00:47;;;;;;;;;;;20.30;59.10;;;;;;4971670;28;1966;-68
2022/12/30 07:03:13;;;;;;;;;;;20.40;59.10;;;;;;4972589;28;962;-69
2022/12/30 07:05:38;;;;;;;;;;;20.40;59.00;;;;;;4971123;28;802;-68
2022/12/30 07:08:04;;;;;;;;;;;20.40;58.90;;;;;;4970611;28;834;-68
2022/12/30 07:10:29;;;;;;;;;;;20.50;58.80;;;;;;4972600;28;1367;-68
2022/12/30 07:12:55;;;;;;;;;;;20.50;58.80;;;;;;4970938;28;874;-68
2022/12/30 07:15:20;;;;;;;;;;;20.50;58.70;;;;;;4972122;28;887;-68
2022/12/30 07:17:46;;;;;;;;;;;20.50;58.80;;;;;;4971657;28;1213;-68
2022/12/30 07:20:12;;;;;;;;;;;20.60;58.80;;;;;;4971502;28;1907;-68
2022/12/30 07:22:38;;;;;;;;;;;20.60;58.80;;;;;;4971986;28;892;-68
2022/12/30 07:25:04;;;;;;;;;;;20.60;58.80;;;;;;4953179;28;1388;-69
2022/12/30 07:27:29;;;;;;;;;;;20.60;58.80;;;;;;4971580;28;967;-67
2022/12/30 07:29:55;;;;;;;;;;;20.60;58.70;;;;;;4970397;28;1060;-68
2022/12/30 07:32:20;;;;;;;;;;;20.50;57.10;;;;;;4971879;28;1207;-69
2022/12/30 07:34:45;;;;;;;;;;;20.40;54.80;;;;;;4942442;28;1531;-70
2022/12/30 07:37:11;;;;;;;;;;;20.40;55.00;;;;;;4966962;28;821;-69
2022/12/30 07:39:38;;;;;;;;;;;20.40;55.30;;;;;;4970919;28;1959;-69
2022/12/30 07:42:03;;;;;;;;;;;20.40;55.70;;;;;;4971452;28;1233;-69
2022/12/30 07:44:29;;;;;;;;;;;20.40;55.80;;;;;;4954487;28;1266;-70
2022/12/30 07:46:55;;;;;;;;;;;20.40;56.00;;;;;;4971401;28;846;-69
2022/12/30 07:49:21;;;;;;;;;;;20.40;56.20;;;;;;4971283;28;842;-70
2022/12/30 07:51:46;;;;;;;;;;;20.40;56.50;;;;;;4971550;28;1279;-70
2022/12/30 07:54:12;;;;;;;;;;;20.40;56.60;;;;;;4970237;28;870;-69
2022/12/30 07:56:37;;;;;;;;;;;20.40;56.80;;;;;;4971713;28;918;-69
2022/12/30 07:59:03;;;;;;;;;;;20.40;56.80;;;;;;4970633;28;847;-69
2022/12/30 08:01:28;;;;;;;;;;;20.40;56.90;;;;;;4969412;28;1974;-70
2022/12/30 08:03:54;;;;;;;;;;;20.40;57.00;;;;;;4969498;28;1563;-68
2022/12/30 08:06:19;;;;;;;;;;;20.40;57.00;;;;;;4971168;28;1258;-68
2022/12/30 08:08:45;;;;;;;;;;;20.40;57.10;;;;;;4971273;28;1106;-69
2022/12/30 08:11:10;;;;;;;;;;;20.40;57.20;;;;;;4969248;28;1300;-69
2022/12/30 08:13:37;;;;;;;;;;;20.40;58.00;;;;;;4984391;28;1432;-69
2022/12/30 08:16:06;;;;;;;;;;;20.40;58.20;;;;;;4968994;28;1368;-68
2022/12/30 08:18:31;;;;;;;;;;;20.40;58.50;;;;;;4969119;28;1294;-69
2022/12/30 08:21:00;;;;;;;;;;;20.40;58.40;;;;;;4973416;28;1961;-69
2022/12/30 08:23:25;;;;;;;;;;;20.40;58.90;;;;;;4973093;28;1694;-69
2022/12/30 08:25:51;;;;;;;;;;;20.40;59.20;;;;;;4974146;28;1347;-70
2022/12/30 08:28:16;;;;;;;;;;;20.30;59.40;;;;;;4974193;28;1302;-70
2022/12/30 08:30:42;;;;;;;;;;;20.30;59.10;;;;;;4974633;28;1397;-70
2022/12/30 08:33:07;;;;;;;;;;;20.30;59.40;;;;;;4973770;28;1002;-69
2022/12/30 08:35:33;;;;;;;;;;;20.30;59.40;;;;;;4975118;28;848;-68
2022/12/30 08:37:58;;;;;;;;;;;20.30;59.50;;;;;;4974042;28;2088;-69
2022/12/30 08:40:24;;;;;;;;;;;20.30;59.70;;;;;;4956286;28;1891;-69
2022/12/30 08:42:49;;;;;;;;;;;20.30;59.80;;;;;;4974015;28;1363;-70
2022/12/30 08:45:15;;;;;;;;;;;20.30;60.00;;;;;;4974690;28;901;-70
2022/12/30 08:47:41;;;;;;;;;;;20.30;60.10;;;;;;4973566;28;995;-70
2022/12/30 08:50:07;;;;;;;;;;;20.20;60.10;;;;;;4973137;28;1538;-70
2022/12/30 08:52:32;;;;;;;;;;;20.20;60.40;;;;;;4973760;28;903;-70
2022/12/30 08:54:58;;;;;;;;;;;20.20;60.50;;;;;;4974574;28;818;-71
2022/12/30 08:57:23;;;;;;;;;;;20.20;60.50;;;;;;4974616;28;880;-70
2022/12/30 08:59:49;;;;;;;;;;;20.20;60.80;;;;;;4973839;28;1950;-70
2022/12/30 09:02:14;;;;;;;;;;;20.20;60.80;;;;;;4973022;28;1357;-71
2022/12/30 09:04:40;;;;;;;;;;;20.20;60.90;;;;;;4974892;28;1274;-71
2022/12/30 09:07:05;;;;;;;;;;;20.10;60.90;;;;;;4974590;28;1085;-70
2022/12/30 09:09:30;;;;;;;;;;;20.10;61.40;;;;;;4973907;28;840;-70
2022/12/30 09:11:56;;;;;;;;;;;20.10;61.40;;;;;;4973927;28;1488;-70
2022/12/30 09:14:22;;;;;;;;;;;20.10;62.10;;;;;;4972846;28;1268;-70
2022/12/30 09:16:47;;;;;;;;;;;20.10;61.40;;;;;;4973126;28;1360;-70
2022/12/30 09:19:13;;;;;;;;;;;20.10;61.50;;;;;;4973848;28;935;-70
2022/12/30 09:21:38;;;;;;;;;;;20.10;61.60;;;;;;4972860;28;1927;-70
2022/12/30 09:24:04;;;;;;;;;;;20.10;61.60;;;;;;4974099;28;1491;-70
2022/12/30 09:26:30;;;;;;;;;;;20.10;61.60;;;;;;4974388;28;828;-70
2022/12/30 09:28:55;;;;;;;;;;;20.10;61.70;;;;;;4974024;28;849;-70
2022/12/30 09:31:21;;;;;;;;;;;20.10;61.80;;;;;;4971646;28;1316;-70
2022/12/30 09:33:46;;;;;;;;;;;20.10;61.80;;;;;;4973824;28;940;-70
2022/12/30 09:36:12;;;;;;;;;;;20.10;61.80;;;;;;4974072;28;843;-70
2022/12/30 09:38:37;;;;;;;;;;;20.10;61.80;;;;;;4972887;28;1404;-70
2022/12/30 09:43:14;;;;;;;;;;;20.10;61.90;;;;;;4972898;28;1934;-70
2022/12/30 09:44:10;;;;;;;;;;;20.10;62.90;;;;;;4973057;28;1161;-70
2022/12/30 09:46:42;;;;;;;;;;;20.10;62.00;;;;;;4956210;28;1499;-70
2022/12/30 09:49:13;;;;;;;;;;;20.10;62.80;;;;;;4973148;28;1224;-70
2022/12/30 09:51:40;;;;;;;;;;;20.10;62.10;;;;;;4973248;28;1262;-70
2022/12/30 09:54:15;;;;;;;;;;;20.10;62.10;;;;;;4971036;28;1833;-69
2022/12/30 09:56:42;;;;;;;;;;;20.10;62.10;;;;;;4955733;28;1297;-69
2022/12/30 09:59:20;;;;;;;;;;;20.10;62.10;;;;;;4970499;28;1948;-69
2022/12/30 10:01:47;;;;;;;;;;;20.10;62.20;;;;;;4972574;28;1948;-69
2022/12/30 10:04:14;;;;;;;;;;;20.10;62.60;;;;;;4972084;28;1284;-70
2022/12/30 10:06:42;;;;;;;;;;;20.10;62.40;;;;;;4972037;28;1513;-70
2022/12/30 10:09:13;;;;;;;;;;;20.10;62.50;;;;;;4973125;28;837;-69
2022/12/30 10:11:45;;;;;;;;;;;20.10;62.50;;;;;;4972055;28;1318;-70
2022/12/30 10:14:13;;;;;;;;;;;20.10;62.50;;;;;;4971644;28;920;-69
2022/12/30 10:16:57;;;;;;;;;;;20.00;62.50;;;;;;4973864;28;1364;-69
2022/12/30 10:19:27;;;;;;;;;;;20.10;62.70;;;;;;4972370;28;895;-70
2022/12/30 10:22:02;;;;;;;;;;;20.10;62.70;;;;;;4971161;28;1899;-69
2022/12/30 10:24:31;;;;;;;;;;;20.00;62.60;;;;;;4970919;28;853;-70
2022/12/30 10:26:57;;;;;;;;;;;20.00;62.50;;;;;;4971752;28;1429;-70
2022/12/30 10:29:29;;;;;;;;;;;20.10;62.60;;;;;;4971308;28;811;-70
2022/12/30 10:31:55;;;;;;;;;;;20.10;62.60;;;;;;4954780;28;1254;-69
2022/12/30 10:34:24;;;;;;;;;;;20.00;62.60;;;;;;4955110;28;1174;-69
2022/12/30 10:36:52;;;;;;;;;;;20.00;62.60;;;;;;4971461;28;867;-71
2022/12/30 10:39:24;;;;;;;;;;;20.00;62.80;;;;;;4972310;28;1301;-70
2022/12/30 10:41:53;;;;;;;;;;;20.00;62.90;;;;;;4944736;28;1907;-68
2022/12/30 10:44:20;;;;;;;;;;;20.00;62.90;;;;;;4972078;28;858;-69
2022/12/30 10:46:59;;;;;;;;;;;20.00;62.90;;;;;;4954417;28;1316;-70
2022/12/30 10:49:31;;;;;;;;;;;20.00;63.00;;;;;;4971017;28;830;-70
2022/12/30 10:51:57;;;;;;;;;;;20.00;63.00;;;;;;4970626;28;1249;-69
2022/12/30 10:54:22;;;;;;;;;;;20.00;63.10;;;;;;4971002;28;884;-69
2022/12/30 10:56:48;;;;;;;;;;;20.00;63.20;;;;;;4972258;28;918;-69
2022/12/30 10:59:17;;;;;;;;;;;20.00;63.20;;;;;;4971987;28;797;-69
2022/12/30 11:01:44;;;;;;;;;;;20.00;63.20;;;;;;4970671;28;1911;-69
2022/12/30 11:04:29;;;;;;;;;;;20.00;63.30;;;;;;4954349;28;1210;-69
2022/12/30 11:06:58;;;;;;;;;;;20.00;63.30;;;;;;4971389;28;2160;-70
2022/12/30 11:09:24;;;;;;;;;;;20.00;63.40;;;;;;4968476;28;1310;-69
2022/12/30 11:14:44;;;;;;;;;;;20.00;63.40;;;;;;4971242;28;815;-72
2022/12/30 11:17:15;;;;;;;;;;;20.00;63.40;;;;;;4987320;28;1331;-70
2022/12/30 11:19:44;;;;;;;;;;;20.00;63.50;;;;;;4972036;28;1931;-73
2022/12/30 11:22:10;;;;;;;;;;;20.00;63.40;;;;;;4970215;28;1324;-73
2022/12/30 11:24:36;;;;;;;;;;;20.00;63.80;;;;;;4969897;28;1104;-72
2022/12/30 11:27:01;;;;;;;;;;;20.00;63.70;;;;;;4970562;28;971;-73
2022/12/30 11:29:28;;;;;;;;;;;20.00;63.60;;;;;;4969574;28;904;-70
2022/12/30 11:31:53;;;;;;;;;;;20.00;63.60;;;;;;4970145;28;1245;-71
2022/12/30 11:34:20;;;;;;;;;;;20.00;63.70;;;;;;4949652;28;1339;-72
2022/12/30 11:36:46;;;;;;;;;;;20.00;63.70;;;;;;4970046;28;975;-72
2022/12/30 11:39:14;;;;;;;;;;;20.00;63.70;;;;;;4971349;28;1290;-71
2022/12/30 11:41:46;;;;;;;;;;;20.00;63.70;;;;;;4970153;28;1906;-71
2022/12/30 11:44:13;;;;;;;;;;;19.90;63.70;;;;;;4970851;28;983;-72
2022/12/30 11:46:39;;;;;;;;;;;19.90;63.70;;;;;;4986545;28;1375;-72
2022/12/30 11:49:23;;;;;;;;;;;19.90;63.80;;;;;;4970059;28;871;-73
2022/12/30 11:51:50;;;;;;;;;;;19.90;63.80;;;;;;4971217;28;1358;-72
2022/12/30 11:54:16;;;;;;;;;;;19.90;63.90;;;;;;4953660;28;1179;-72
2022/12/30 11:56:51;;;;;;;;;;;19.90;63.90;;;;;;4952199;28;1436;-73
2022/12/30 11:59:18;;;;;;;;;;;19.90;64.00;;;;;;4953683;28;1206;-73
2022/12/30 12:01:44;;;;;;;;;;;20.00;64.10;;;;;;4952318;28;1907;-73
2022/12/30 12:04:27;;;;;;;;;;;20.00;64.00;;;;;;4970185;28;1319;-72
2022/12/30 12:06:53;;;;;;;;;;;20.00;64.00;;;;;;4971382;28;927;-72
2022/12/30 12:09:18;;;;;;;;;;;20.00;63.90;;;;;;4970868;28;842;-72
2022/12/30 12:11:44;;;;;;;;;;;20.00;63.90;;;;;;4953350;28;1285;-73
2022/12/30 12:14:11;;;;;;;;;;;20.00;64.00;;;;;;4953251;28;886;-72
2022/12/30 12:16:46;;;;;;;;;;;20.00;64.00;;;;;;4969349;28;1439;-73
2022/12/30 12:19:14;;;;;;;;;;;20.00;63.90;;;;;;4965865;28;2016;-71
2022/12/30 12:21:39;;;;;;;;;;;20.00;64.00;;;;;;4969481;28;1958;-72
2022/12/30 12:24:24;;;;;;;;;;;20.00;63.90;;;;;;4953575;28;1425;-71
2022/12/30 12:27:00;;;;;;;;;;;20.00;64.00;;;;;;4969562;28;896;-73
2022/12/30 12:29:25;;;;;;;;;;;20.00;63.90;;;;;;4969267;28;911;-71
2022/12/30 12:31:57;;;;;;;;;;;20.00;64.00;;;;;;4969215;28;1311;-71
2022/12/30 12:34:22;;;;;;;;;;;19.90;63.90;;;;;;4971164;28;1594;-70
2022/12/30 12:36:48;;;;;;;;;;;19.90;63.90;;;;;;4971150;28;1561;-71
2022/12/30 12:39:17;;;;;;;;;;;19.90;63.90;;;;;;4970779;28;1523;-68
2022/12/30 12:41:47;;;;;;;;;;;19.90;64.00;;;;;;4969359;28;1899;-71
2022/12/30 12:44:20;;;;;;;;;;;19.90;64.10;;;;;;4970986;28;935;-70
2022/12/30 12:47:04;;;;;;;;;;;19.90;64.10;;;;;;4969980;28;812;-70
2022/12/30 12:49:33;;;;;;;;;;;19.90;64.10;;;;;;4970436;28;1304;-70
2022/12/30 12:52:05;;;;;;;;;;;19.90;64.00;;;;;;4969801;28;1277;-70
2022/12/30 12:54:55;;;;;;;;;;;19.90;64.10;;;;;;4971114;28;828;-70
2022/12/30 12:57:27;;;;;;;;;;;19.90;64.10;;;;;;4969871;28;857;-71
2022/12/30 13:00:07;;;;;;;;;;;19.90;64.30;;;;;;4952903;28;1902;-70
2022/12/30 13:02:35;;;;;;;;;;;20.00;64.50;;;;;;4967950;28;1443;-70
2022/12/30 13:05:09;;;;;;;;;;;20.00;64.60;;;;;;4970564;28;1079;-70
2022/12/30 13:07:53;;;;;;;;;;;19.90;64.00;;;;;;4974914;28;810;-71
2022/12/30 13:10:25;;;;;;;;;;;19.90;63.50;;;;;;4973852;28;1281;-70
2022/12/30 13:12:58;;;;;;;;;;;19.90;63.40;;;;;;4973147;28;869;-70
2022/12/30 13:15:46;;;;;;;;;;;19.80;63.40;;;;;;4972820;28;793;-69
2022/12/30 13:18:16;;;;;;;;;;;19.80;63.50;;;;;;4968106;28;1396;-70
2022/12/30 13:20:53;;;;;;;;;;;19.80;63.50;;;;;;4972346;28;1911;-71
2022/12/30 13:23:21;;;;;;;;;;;19.70;63.50;;;;;;4973910;28;884;-70
2022/12/30 13:25:49;;;;;;;;;;;19.70;63.50;;;;;;4972975;28;865;-70
2022/12/30 13:28:22;;;;;;;;;;;19.70;63.50;;;;;;4968903;28;1031;-71
2022/12/30 13:30:56;;;;;;;;;;;19.70;63.50;;;;;;4973322;28;1419;-70
2022/12/30 13:33:24;;;;;;;;;;;19.70;63.60;;;;;;4971203;28;1251;-70
2022/12/30 13:36:13;;;;;;;;;;;19.60;63.50;;;;;;4972675;28;908;-70
2022/12/30 13:38:59;;;;;;;;;;;19.60;63.50;;;;;;4965691;28;1401;-71
2022/12/30 13:41:25;;;;;;;;;;;19.60;63.50;;;;;;4970264;28;1902;-71
2022/12/30 13:43:51;;;;;;;;;;;19.60;63.50;;;;;;4972131;28;855;-71
2022/12/30 13:46:17;;;;;;;;;;;19.60;63.50;;;;;;4972017;28;807;-71
2022/12/30 13:48:49;;;;;;;;;;;19.50;63.50;;;;;;4973708;28;926;-71
2022/12/30 13:51:17;;;;;;;;;;;19.50;63.60;;;;;;4972733;28;1348;-71
2022/12/30 13:53:47;;;;;;;;;;;19.50;63.70;;;;;;4972415;28;900;-70
2022/12/30 13:56:20;;;;;;;;;;;19.50;63.80;;;;;;4972152;28;1620;-70
2022/12/30 13:58:49;;;;;;;;;;;19.50;63.80;;;;;;4972411;28;1633;-71
2022/12/30 14:01:18;;;;;;;;;;;19.50;63.80;;;;;;4971924;28;2430;-70
2022/12/30 14:03:43;;;;;;;;;;;19.60;63.90;;;;;;4973444;28;1263;-70
2022/12/30 14:06:28;;;;;;;;;;;19.50;63.80;;;;;;4972365;28;898;-70
2022/12/30 14:09:13;;;;;;;;;;;19.50;63.80;;;;;;4971957;28;955;-70
2022/12/30 14:11:38;;;;;;;;;;;19.50;63.90;;;;;;4972073;28;1636;-70
2022/12/30 14:14:24;;;;;;;;;;;19.50;63.90;;;;;;4971784;28;845;-70
2022/12/30 14:16:51;;;;;;;;;;;19.50;63.80;;;;;;4973070;28;975;-71
2022/12/30 14:19:18;;;;;;;;;;;19.50;63.90;;;;;;4971520;28;911;-70
2022/12/30 14:21:45;;;;;;;;;;;19.50;63.90;;;;;;4971605;28;1995;-71
2022/12/30 14:24:33;;;;;;;;;;;19.50;63.90;;;;;;4971273;28;1634;-70
2022/12/30 14:26:59;;;;;;;;;;;19.50;63.80;;;;;;4972385;28;1165;-70
2022/12/30 14:29:26;;;;;;;;;;;19.50;63.90;;;;;;4971017;28;873;-70
2022/12/30 14:31:53;;;;;;;;;;;19.50;63.80;;;;;;4969972;28;1648;-71
2022/12/30 14:34:21;;;;;;;;;;;19.50;64.00;;;;;;4945595;28;1359;-71
2022/12/30 14:36:54;;;;;;;;;;;19.50;63.90;;;;;;4972154;28;1740;-71
2022/12/30 14:39:21;;;;;;;;;;;19.50;64.00;;;;;;4953203;28;1301;-71
2022/12/30 14:41:46;;;;;;;;;;;19.50;63.90;;;;;;4970225;28;1906;-72
2022/12/30 14:44:11;;;;;;;;;;;19.50;64.00;;;;;;4970635;28;1388;-70
2022/12/30 14:46:37;;;;;;;;;;;19.50;64.70;;;;;;4972577;28;942;-71
2022/12/30 14:49:03;;;;;;;;;;;19.50;64.00;;;;;;4971575;28;849;-71
2022/12/30 14:51:29;;;;;;;;;;;19.50;64.00;;;;;;4972584;28;1356;-71
2022/12/30 14:53:54;;;;;;;;;;;19.50;64.00;;;;;;4971702;28;908;-70
2022/12/30 14:56:20;;;;;;;;;;;19.50;64.10;;;;;;4971582;28;893;-71
2022/12/30 14:58:45;;;;;;;;;;;19.50;64.10;;;;;;4972137;28;809;-68
2022/12/30 15:01:11;;;;;;;;;;;19.50;63.00;;;;;;4954069;28;1894;-71
2022/12/30 15:03:37;;;;;;;;;;;19.40;56.50;;;;;;4966364;28;1713;-71
2022/12/30 15:06:02;;;;;;;;;;;19.40;56.00;;;;;;4969857;28;1287;-71
2022/12/30 15:08:35;;;;;;;;;;;19.30;56.80;;;;;;4972348;28;848;-71
2022/12/30 15:11:02;;;;;;;;;;;19.30;57.30;;;;;;4970153;28;1297;-68
2022/12/30 15:13:27;;;;;;;;;;;19.30;57.50;;;;;;4968622;28;871;-69
2022/12/30 15:15:54;;;;;;;;;;;19.30;57.90;;;;;;4969759;28;868;-68
2022/12/30 15:18:38;;;;;;;;;;;19.30;58.20;;;;;;4969216;28;1279;-68
2022/12/30 15:21:13;;;;;;;;;;;19.30;59.00;;;;;;4971464;28;1934;-68
2022/12/30 15:23:38;;;;;;;;;;;19.30;58.70;;;;;;4971802;28;837;-69
2022/12/30 15:26:04;;;;;;;;;;;19.30;58.90;;;;;;4971753;28;837;-69
2022/12/30 15:28:29;;;;;;;;;;;19.30;59.20;;;;;;4968675;28;917;-69
2022/12/30 15:30:55;;;;;;;;;;;19.30;59.40;;;;;;4970347;28;1284;-69